sensor_id;sensor_type;location;lat;lon;timestamp;temperature;humidity
33382;DHT22;21342;48.786;9.166;2022-11-14T00:00:22;5.70;99.90
33382;DHT22;21342;48.786;9.166;2022-11-14T00:02:50;5.70;99.90
33382;DHT22;21342;48.786;9.166;2022-11-14T00:05:17;5.70;99.90
33382;DHT22;21342;48.786;9.166;2022-11-14T00:07:44;5.80;99.90
33382;DHT22;21342;48.786;9.166;2022-11-14T00:10:14;5.70;99.90
33382;DHT22;21342;48.786;9.166;2022-11-14T00:12:41;5.70;99.90
33382;DHT22;21342;48.786;9.166;2022-11-14T00:15:09;5.60;99.90
33382;DHT22;21342;48.786;9.166;2022-11-14T00:17:36;5.60;99.90
33382;DHT22;21342;48.786;9.166;2022-11-14T00:20:05;5.50;99.90
33382;DHT22;21342;48.786;9.166;2022-11-14T00:22:32;5.40;99.90
33382;DHT22;21342;48.786;9.166;2022-11-14T00:25:00;5.50;99.90
33382;DHT22;21342;48.786;9.166;2022-11-14T00:27:28;5.70;99.90
33382;DHT22;21342;48.786;9.166;2022-11-14T00:29:55;5.60;99.90
33382;DHT22;21342;48.786;9.166;2022-11-14T00:32:22;5.70;99.90
33382;DHT22;21342;48.786;9.166;2022-11-14T00:34:49;5.70;99.90
33382;DHT22;21342;48.786;9.166;2022-11-14T00:37:17;5.60;99.90
33382;DHT22;21342;48.786;9.166;2022-11-14T00:39:44;5.60;99.90
33382;DHT22;21342;48.786;9.166;2022-11-14T00:42:11;5.60;99.90
33382;DHT22;21342;48.786;9.166;2022-11-14T00:44:39;5.50;99.90
33382;DHT22;21342;48.786;9.166;2022-11-14T00:47:06;5.40;99.90
33382;DHT22;21342;48.786;9.166;2022-11-14T00:49:34;5.40;99.90
33382;DHT22;21342;48.786;9.166;2022-11-14T00:52:01;5.40;99.90
33382;DHT22;21342;48.786;9.166;2022-11-14T00:54:28;5.40;99.90
33382;DHT22;21342;48.786;9.166;2022-11-14T00:56:55;5.40;99.90
33382;DHT22;21342;48.786;9.166;2022-11-14T00:59:26;5.50;99.90
33382;DHT22;21342;48.786;9.166;2022-11-14T01:01:55;5.50;99.90
33382;DHT22;21342;48.786;9.166;2022-11-14T01:04:22;5.50;99.90
33382;DHT22;21342;48.786;9.166;2022-11-14T01:06:49;5.30;99.90
33382;DHT22;21342;48.786;9.166;2022-11-14T01:09:16;5.20;99.90
33382;DHT22;21342;48.786;9.166;2022-11-14T01:11:43;5.20;99.90
33382;DHT22;21342;48.786;9.166;2022-11-14T01:14:11;5.20;99.90
33382;DHT22;21342;48.786;9.166;2022-11-14T01:16:38;5.10;99.90
33382;DHT22;21342;48.786;9.166;2022-11-14T01:19:06;5.10;99.90
33382;DHT22;21342;48.786;9.166;2022-11-14T01:21:35;5.10;99.90
33382;DHT22;21342;48.786;9.166;2022-11-14T01:24:02;5.20;99.90
33382;DHT22;21342;48.786;9.166;2022-11-14T01:26:29;5.10;99.90
33382;DHT22;21342;48.786;9.166;2022-11-14T01:28:56;5.20;99.90
33382;DHT22;21342;48.786;9.166;2022-11-14T01:31:24;5.10;99.90
33382;DHT22;21342;48.786;9.166;2022-11-14T01:33:52;5.20;99.90
33382;DHT22;21342;48.786;9.166;2022-11-14T01:36:21;5.20;99.90
33382;DHT22;21342;48.786;9.166;2022-11-14T01:38:51;5.20;99.90
33382;DHT22;21342;48.786;9.166;2022-11-14T01:41:19;4.90;99.90
33382;DHT22;21342;48.786;9.166;2022-11-14T01:43:47;4.80;99.90
33382;DHT22;21342;48.786;9.166;2022-11-14T01:46:17;4.80;99.90
33382;DHT22;21342;48.786;9.166;2022-11-14T01:48:49;4.70;99.90
33382;DHT22;21342;48.786;9.166;2022-11-14T01:51:25;4.60;99.90
33382;DHT22;21342;48.786;9.166;2022-11-14T01:53:55;4.40;99.90
33382;DHT22;21342;48.786;9.166;2022-11-14T01:56:28;4.60;99.90
33382;DHT22;21342;48.786;9.166;2022-11-14T01:58:59;4.70;99.90
33382;DHT22;21342;48.786;9.166;2022-11-14T02:01:31;4.80;99.90
33382;DHT22;21342;48.786;9.166;2022-11-14T02:03:59;4.80;99.90
33382;DHT22;21342;48.786;9.166;2022-11-14T02:06:30;4.90;99.90
33382;DHT22;21342;48.786;9.166;2022-11-14T02:09:00;5.00;99.90
33382;DHT22;21342;48.786;9.166;2022-11-14T02:11:30;5.10;99.90
33382;DHT22;21342;48.786;9.166;2022-11-14T02:13:58;5.10;99.90
33382;DHT22;21342;48.786;9.166;2022-11-14T02:16:26;5.30;99.90
33382;DHT22;21342;48.786;9.166;2022-11-14T02:18:53;5.30;99.90
33382;DHT22;21342;48.786;9.166;2022-11-14T02:21:22;5.30;99.90
33382;DHT22;21342;48.786;9.166;2022-11-14T02:23:49;5.30;99.90
33382;DHT22;21342;48.786;9.166;2022-11-14T02:26:17;5.40;99.90
33382;DHT22;21342;48.786;9.166;2022-11-14T02:28:45;5.40;99.90
33382;DHT22;21342;48.786;9.166;2022-11-14T02:31:12;5.30;99.90
33382;DHT22;21342;48.786;9.166;2022-11-14T02:33:40;5.20;99.90
33382;DHT22;21342;48.786;9.166;2022-11-14T02:36:08;5.10;99.90
33382;DHT22;21342;48.786;9.166;2022-11-14T02:38:37;5.20;99.90
33382;DHT22;21342;48.786;9.166;2022-11-14T02:41:04;5.10;99.90
33382;DHT22;21342;48.786;9.166;2022-11-14T02:43:31;5.10;99.90
33382;DHT22;21342;48.786;9.166;2022-11-14T02:45:58;5.10;99.90
33382;DHT22;21342;48.786;9.166;2022-11-14T02:48:25;5.00;99.90
33382;DHT22;21342;48.786;9.166;2022-11-14T02:50:52;5.00;99.90
33382;DHT22;21342;48.786;9.166;2022-11-14T02:53:19;5.00;99.90
33382;DHT22;21342;48.786;9.166;2022-11-14T02:55:48;5.10;99.90
33382;DHT22;21342;48.786;9.166;2022-11-14T02:58:15;5.00;99.90
33382;DHT22;21342;48.786;9.166;2022-11-14T03:00:42;5.10;99.90
33382;DHT22;21342;48.786;9.166;2022-11-14T03:03:09;5.10;99.90
33382;DHT22;21342;48.786;9.166;2022-11-14T03:05:36;5.00;99.90
33382;DHT22;21342;48.786;9.166;2022-11-14T03:08:03;5.00;99.90
33382;DHT22;21342;48.786;9.166;2022-11-14T03:10:31;4.90;99.90
33382;DHT22;21342;48.786;9.166;2022-11-14T03:12:59;4.80;99.90
33382;DHT22;21342;48.786;9.166;2022-11-14T03:15:26;4.80;99.90
33382;DHT22;21342;48.786;9.166;2022-11-14T03:17:53;4.80;99.90
33382;DHT22;21342;48.786;9.166;2022-11-14T03:20:20;4.70;99.90
33382;DHT22;21342;48.786;9.166;2022-11-14T03:22:47;4.70;99.90
33382;DHT22;21342;48.786;9.166;2022-11-14T03:25:15;4.80;99.90
33382;DHT22;21342;48.786;9.166;2022-11-14T03:27:42;4.80;99.90
33382;DHT22;21342;48.786;9.166;2022-11-14T03:30:11;4.70;99.90
33382;DHT22;21342;48.786;9.166;2022-11-14T03:32:38;4.70;99.90
33382;DHT22;21342;48.786;9.166;2022-11-14T03:35:07;4.60;99.90
33382;DHT22;21342;48.786;9.166;2022-11-14T03:37:34;4.60;99.90
33382;DHT22;21342;48.786;9.166;2022-11-14T03:40:01;4.60;99.90
33382;DHT22;21342;48.786;9.166;2022-11-14T03:42:32;4.60;99.90
33382;DHT22;21342;48.786;9.166;2022-11-14T03:44:59;4.60;99.90
33382;DHT22;21342;48.786;9.166;2022-11-14T03:47:27;4.60;99.90
33382;DHT22;21342;48.786;9.166;2022-11-14T03:49:54;4.60;99.90
33382;DHT22;21342;48.786;9.166;2022-11-14T03:52:22;4.60;99.90
33382;DHT22;21342;48.786;9.166;2022-11-14T03:54:50;4.70;99.90
33382;DHT22;21342;48.786;9.166;2022-11-14T03:57:17;4.70;99.90
33382;DHT22;21342;48.786;9.166;2022-11-14T03:59:45;4.80;99.90
33382;DHT22;21342;48.786;9.166;2022-11-14T04:02:12;4.80;99.90
33382;DHT22;21342;48.786;9.166;2022-11-14T04:04:40;4.80;99.90
33382;DHT22;21342;48.786;9.166;2022-11-14T04:07:07;4.70;99.90
33382;DHT22;21342;48.786;9.166;2022-11-14T04:09:34;4.60;99.90
33382;DHT22;21342;48.786;9.166;2022-11-14T04:12:02;4.60;99.90
33382;DHT22;21342;48.786;9.166;2022-11-14T04:14:29;4.70;99.90
33382;DHT22;21342;48.786;9.166;2022-11-14T04:16:56;4.80;99.90
33382;DHT22;21342;48.786;9.166;2022-11-14T04:19:23;4.90;99.90
33382;DHT22;21342;48.786;9.166;2022-11-14T04:21:51;4.90;99.90
33382;DHT22;21342;48.786;9.166;2022-11-14T04:24:18;4.80;99.90
33382;DHT22;21342;48.786;9.166;2022-11-14T04:26:46;4.90;99.90
33382;DHT22;21342;48.786;9.166;2022-11-14T04:29:13;4.90;99.90
33382;DHT22;21342;48.786;9.166;2022-11-14T04:31:40;4.90;99.90
33382;DHT22;21342;48.786;9.166;2022-11-14T04:34:07;4.90;99.90
33382;DHT22;21342;48.786;9.166;2022-11-14T04:36:34;4.90;99.90
33382;DHT22;21342;48.786;9.166;2022-11-14T04:39:02;4.90;99.90
33382;DHT22;21342;48.786;9.166;2022-11-14T04:41:30;4.90;99.90
33382;DHT22;21342;48.786;9.166;2022-11-14T04:43:57;4.90;99.90
33382;DHT22;21342;48.786;9.166;2022-11-14T04:46:24;5.00;99.90
33382;DHT22;21342;48.786;9.166;2022-11-14T04:48:51;5.00;99.90
33382;DHT22;21342;48.786;9.166;2022-11-14T04:51:18;5.00;99.90
33382;DHT22;21342;48.786;9.166;2022-11-14T04:53:45;5.00;99.90
33382;DHT22;21342;48.786;9.166;2022-11-14T04:56:14;5.00;99.90
33382;DHT22;21342;48.786;9.166;2022-11-14T04:58:41;5.00;99.90
33382;DHT22;21342;48.786;9.166;2022-11-14T05:01:08;4.90;99.90
33382;DHT22;21342;48.786;9.166;2022-11-14T05:03:35;4.90;99.90
33382;DHT22;21342;48.786;9.166;2022-11-14T05:06:03;4.90;99.90
33382;DHT22;21342;48.786;9.166;2022-11-14T05:08:30;4.90;99.90
33382;DHT22;21342;48.786;9.166;2022-11-14T05:10:57;5.00;99.90
33382;DHT22;21342;48.786;9.166;2022-11-14T05:13:26;5.00;99.90
33382;DHT22;21342;48.786;9.166;2022-11-14T05:15:53;5.00;99.90
33382;DHT22;21342;48.786;9.166;2022-11-14T05:18:23;5.00;99.90
33382;DHT22;21342;48.786;9.166;2022-11-14T05:20:51;5.00;99.90
33382;DHT22;21342;48.786;9.166;2022-11-14T05:23:19;5.00;99.90
33382;DHT22;21342;48.786;9.166;2022-11-14T05:25:47;5.00;99.90
33382;DHT22;21342;48.786;9.166;2022-11-14T05:28:24;5.00;99.90
33382;DHT22;21342;48.786;9.166;2022-11-14T05:30:52;5.00;99.90
33382;DHT22;21342;48.786;9.166;2022-11-14T05:33:19;5.00;99.90
33382;DHT22;21342;48.786;9.166;2022-11-14T05:35:46;5.00;99.90
33382;DHT22;21342;48.786;9.166;2022-11-14T05:38:13;4.90;99.90
33382;DHT22;21342;48.786;9.166;2022-11-14T05:40:40;5.00;99.90
33382;DHT22;21342;48.786;9.166;2022-11-14T05:43:08;5.00;99.90
33382;DHT22;21342;48.786;9.166;2022-11-14T05:45:35;5.00;99.90
33382;DHT22;21342;48.786;9.166;2022-11-14T05:48:04;5.10;99.90
33382;DHT22;21342;48.786;9.166;2022-11-14T05:50:31;5.10;99.90
33382;DHT22;21342;48.786;9.166;2022-11-14T05:52:58;5.20;99.90
33382;DHT22;21342;48.786;9.166;2022-11-14T05:55:25;5.20;99.90
33382;DHT22;21342;48.786;9.166;2022-11-14T05:57:52;5.20;99.90
33382;DHT22;21342;48.786;9.166;2022-11-14T06:00:19;5.30;99.90
33382;DHT22;21342;48.786;9.166;2022-11-14T06:02:47;5.30;99.90
33382;DHT22;21342;48.786;9.166;2022-11-14T06:05:19;5.30;99.90
33382;DHT22;21342;48.786;9.166;2022-11-14T06:07:46;5.30;99.90
33382;DHT22;21342;48.786;9.166;2022-11-14T06:10:13;5.40;99.90
33382;DHT22;21342;48.786;9.166;2022-11-14T06:12:40;5.40;99.90
33382;DHT22;21342;48.786;9.166;2022-11-14T06:15:08;5.60;99.90
33382;DHT22;21342;48.786;9.166;2022-11-14T06:17:35;5.60;99.90
33382;DHT22;21342;48.786;9.166;2022-11-14T06:20:03;5.70;99.90
33382;DHT22;21342;48.786;9.166;2022-11-14T06:22:31;5.70;99.90
33382;DHT22;21342;48.786;9.166;2022-11-14T06:25:00;5.60;99.90
33382;DHT22;21342;48.786;9.166;2022-11-14T06:27:27;5.70;99.90
33382;DHT22;21342;48.786;9.166;2022-11-14T06:29:54;5.80;99.90
33382;DHT22;21342;48.786;9.166;2022-11-14T06:32:21;5.70;99.90
33382;DHT22;21342;48.786;9.166;2022-11-14T06:34:49;5.80;99.90
33382;DHT22;21342;48.786;9.166;2022-11-14T06:37:16;5.90;99.90
33382;DHT22;21342;48.786;9.166;2022-11-14T06:39:44;6.00;99.90
33382;DHT22;21342;48.786;9.166;2022-11-14T06:42:11;6.10;99.90
33382;DHT22;21342;48.786;9.166;2022-11-14T06:44:38;6.10;99.90
33382;DHT22;21342;48.786;9.166;2022-11-14T06:47:06;6.10;99.90
33382;DHT22;21342;48.786;9.166;2022-11-14T06:49:33;6.00;99.90
33382;DHT22;21342;48.786;9.166;2022-11-14T06:52:00;6.00;99.90
33382;DHT22;21342;48.786;9.166;2022-11-14T06:54:27;6.00;99.90
33382;DHT22;21342;48.786;9.166;2022-11-14T06:56:56;6.00;99.90
33382;DHT22;21342;48.786;9.166;2022-11-14T06:59:23;6.00;99.90
33382;DHT22;21342;48.786;9.166;2022-11-14T07:01:50;6.10;99.90
33382;DHT22;21342;48.786;9.166;2022-11-14T07:04:17;6.10;99.90
33382;DHT22;21342;48.786;9.166;2022-11-14T07:06:44;6.20;99.90
33382;DHT22;21342;48.786;9.166;2022-11-14T07:09:11;6.20;99.90
33382;DHT22;21342;48.786;9.166;2022-11-14T07:11:38;6.30;99.90
33382;DHT22;21342;48.786;9.166;2022-11-14T07:14:08;6.30;99.90
33382;DHT22;21342;48.786;9.166;2022-11-14T07:16:35;6.40;99.90
33382;DHT22;21342;48.786;9.166;2022-11-14T07:19:04;6.40;99.90
33382;DHT22;21342;48.786;9.166;2022-11-14T07:21:32;6.30;99.90
33382;DHT22;21342;48.786;9.166;2022-11-14T07:24:00;6.40;99.90
33382;DHT22;21342;48.786;9.166;2022-11-14T07:26:27;6.40;99.90
33382;DHT22;21342;48.786;9.166;2022-11-14T07:28:54;6.50;99.90
33382;DHT22;21342;48.786;9.166;2022-11-14T07:31:23;6.50;99.90
33382;DHT22;21342;48.786;9.166;2022-11-14T07:33:50;6.60;99.90
33382;DHT22;21342;48.786;9.166;2022-11-14T07:36:17;6.60;99.90
33382;DHT22;21342;48.786;9.166;2022-11-14T07:38:44;6.60;99.90
33382;DHT22;21342;48.786;9.166;2022-11-14T07:41:12;6.60;99.90
33382;DHT22;21342;48.786;9.166;2022-11-14T07:43:40;6.60;99.90
33382;DHT22;21342;48.786;9.166;2022-11-14T07:46:10;6.70;99.90
33382;DHT22;21342;48.786;9.166;2022-11-14T07:48:39;6.60;99.90
33382;DHT22;21342;48.786;9.166;2022-11-14T07:51:11;6.70;99.90
33382;DHT22;21342;48.786;9.166;2022-11-14T07:53:40;6.80;99.90
33382;DHT22;21342;48.786;9.166;2022-11-14T07:56:08;6.90;99.90
33382;DHT22;21342;48.786;9.166;2022-11-14T07:58:35;7.00;99.90
33382;DHT22;21342;48.786;9.166;2022-11-14T08:01:04;7.10;99.90
33382;DHT22;21342;48.786;9.166;2022-11-14T08:03:32;7.10;99.90
33382;DHT22;21342;48.786;9.166;2022-11-14T08:06:01;7.20;99.90
33382;DHT22;21342;48.786;9.166;2022-11-14T08:08:29;7.20;99.90
33382;DHT22;21342;48.786;9.166;2022-11-14T08:10:56;7.30;99.90
33382;DHT22;21342;48.786;9.166;2022-11-14T08:13:24;7.30;99.90
33382;DHT22;21342;48.786;9.166;2022-11-14T08:15:51;7.30;99.90
33382;DHT22;21342;48.786;9.166;2022-11-14T08:18:19;7.40;99.90
33382;DHT22;21342;48.786;9.166;2022-11-14T08:20:46;7.40;99.90
33382;DHT22;21342;48.786;9.166;2022-11-14T08:23:14;7.40;99.90
33382;DHT22;21342;48.786;9.166;2022-11-14T08:25:41;7.40;99.90
33382;DHT22;21342;48.786;9.166;2022-11-14T08:28:09;7.40;99.90
33382;DHT22;21342;48.786;9.166;2022-11-14T08:30:36;7.30;99.90
33382;DHT22;21342;48.786;9.166;2022-11-14T08:33:03;7.40;99.90
33382;DHT22;21342;48.786;9.166;2022-11-14T08:35:32;7.50;99.90
33382;DHT22;21342;48.786;9.166;2022-11-14T08:38:00;7.60;99.90
33382;DHT22;21342;48.786;9.166;2022-11-14T08:40:28;7.70;99.90
33382;DHT22;21342;48.786;9.166;2022-11-14T08:42:59;7.70;99.90
33382;DHT22;21342;48.786;9.166;2022-11-14T08:45:27;7.80;99.90
33382;DHT22;21342;48.786;9.166;2022-11-14T08:47:54;7.90;99.90
33382;DHT22;21342;48.786;9.166;2022-11-14T08:50:21;7.90;99.90
33382;DHT22;21342;48.786;9.166;2022-11-14T08:52:49;8.00;99.90
33382;DHT22;21342;48.786;9.166;2022-11-14T08:55:17;8.00;99.90
33382;DHT22;21342;48.786;9.166;2022-11-14T08:57:46;8.00;99.90
33382;DHT22;21342;48.786;9.166;2022-11-14T09:00:14;8.10;99.90
33382;DHT22;21342;48.786;9.166;2022-11-14T09:02:41;8.20;99.90
33382;DHT22;21342;48.786;9.166;2022-11-14T09:05:08;8.30;99.90
33382;DHT22;21342;48.786;9.166;2022-11-14T09:07:36;8.30;99.90
33382;DHT22;21342;48.786;9.166;2022-11-14T09:10:04;8.40;99.90
33382;DHT22;21342;48.786;9.166;2022-11-14T09:12:31;8.40;99.90
33382;DHT22;21342;48.786;9.166;2022-11-14T09:15:00;8.50;99.90
33382;DHT22;21342;48.786;9.166;2022-11-14T09:17:27;8.60;99.90
33382;DHT22;21342;48.786;9.166;2022-11-14T09:19:54;8.60;99.90
33382;DHT22;21342;48.786;9.166;2022-11-14T09:22:21;8.60;99.90
33382;DHT22;21342;48.786;9.166;2022-11-14T09:24:48;8.70;99.90
33382;DHT22;21342;48.786;9.166;2022-11-14T09:27:16;8.70;99.90
33382;DHT22;21342;48.786;9.166;2022-11-14T09:29:43;8.80;99.90
33382;DHT22;21342;48.786;9.166;2022-11-14T09:32:12;8.80;99.90
33382;DHT22;21342;48.786;9.166;2022-11-14T09:34:40;8.80;99.90
33382;DHT22;21342;48.786;9.166;2022-11-14T09:37:10;8.90;99.90
33382;DHT22;21342;48.786;9.166;2022-11-14T09:39:38;9.00;99.90
33382;DHT22;21342;48.786;9.166;2022-11-14T09:42:20;9.00;99.90
33382;DHT22;21342;48.786;9.166;2022-11-14T09:44:54;9.10;99.90
33382;DHT22;21342;48.786;9.166;2022-11-14T09:47:27;9.20;99.90
33382;DHT22;21342;48.786;9.166;2022-11-14T09:49:59;9.20;99.90
33382;DHT22;21342;48.786;9.166;2022-11-14T09:52:34;9.30;99.90
33382;DHT22;21342;48.786;9.166;2022-11-14T09:55:09;9.40;99.90
33382;DHT22;21342;48.786;9.166;2022-11-14T09:57:38;9.50;99.90
33382;DHT22;21342;48.786;9.166;2022-11-14T10:00:15;9.60;99.90
33382;DHT22;21342;48.786;9.166;2022-11-14T10:02:57;9.70;99.90
33382;DHT22;21342;48.786;9.166;2022-11-14T10:05:40;9.70;99.90
33382;DHT22;21342;48.786;9.166;2022-11-14T10:08:18;9.80;99.90
33382;DHT22;21342;48.786;9.166;2022-11-14T10:10:52;9.90;99.90
33382;DHT22;21342;48.786;9.166;2022-11-14T10:13:40;10.00;99.90
33382;DHT22;21342;48.786;9.166;2022-11-14T10:16:14;10.20;99.90
33382;DHT22;21342;48.786;9.166;2022-11-14T10:19:01;10.40;99.90
33382;DHT22;21342;48.786;9.166;2022-11-14T10:21:43;10.50;99.90
33382;DHT22;21342;48.786;9.166;2022-11-14T10:24:25;10.80;99.90
33382;DHT22;21342;48.786;9.166;2022-11-14T10:27:00;11.40;99.90
33382;DHT22;21342;48.786;9.166;2022-11-14T10:29:45;12.40;99.90
33382;DHT22;21342;48.786;9.166;2022-11-14T10:32:21;12.40;99.90
33382;DHT22;21342;48.786;9.166;2022-11-14T10:34:58;12.30;99.90
33382;DHT22;21342;48.786;9.166;2022-11-14T10:37:32;11.90;99.90
33382;DHT22;21342;48.786;9.166;2022-11-14T10:40:14;11.60;99.90
33382;DHT22;21342;48.786;9.166;2022-11-14T10:42:45;11.30;99.90
33382;DHT22;21342;48.786;9.166;2022-11-14T10:45:18;11.20;99.90
33382;DHT22;21342;48.786;9.166;2022-11-14T10:47:51;11.00;99.90
33382;DHT22;21342;48.786;9.166;2022-11-14T10:50:24;10.90;99.90
33382;DHT22;21342;48.786;9.166;2022-11-14T10:52:56;10.80;99.90
33382;DHT22;21342;48.786;9.166;2022-11-14T10:55:26;10.80;99.90
33382;DHT22;21342;48.786;9.166;2022-11-14T10:57:53;11.00;99.90
33382;DHT22;21342;48.786;9.166;2022-11-14T11:00:21;11.10;99.90
33382;DHT22;21342;48.786;9.166;2022-11-14T11:02:50;11.20;99.90
33382;DHT22;21342;48.786;9.166;2022-11-14T11:05:19;11.20;99.90
33382;DHT22;21342;48.786;9.166;2022-11-14T11:07:49;11.50;99.90
33382;DHT22;21342;48.786;9.166;2022-11-14T11:10:35;11.80;99.90
33382;DHT22;21342;48.786;9.166;2022-11-14T11:13:34;12.00;99.90
33382;DHT22;21342;48.786;9.166;2022-11-14T11:16:03;11.90;99.90
33382;DHT22;21342;48.786;9.166;2022-11-14T11:18:32;12.00;99.90
33382;DHT22;21342;48.786;9.166;2022-11-14T11:21:09;12.10;99.90
33382;DHT22;21342;48.786;9.166;2022-11-14T11:23:48;12.30;99.90
33382;DHT22;21342;48.786;9.166;2022-11-14T11:26:18;12.40;99.90
33382;DHT22;21342;48.786;9.166;2022-11-14T11:29:02;12.30;99.90
33382;DHT22;21342;48.786;9.166;2022-11-14T11:31:48;12.40;99.90
33382;DHT22;21342;48.786;9.166;2022-11-14T11:34:17;12.30;99.90
33382;DHT22;21342;48.786;9.166;2022-11-14T11:36:50;12.30;99.90
33382;DHT22;21342;48.786;9.166;2022-11-14T11:39:24;12.00;99.90
33382;DHT22;21342;48.786;9.166;2022-11-14T11:41:58;12.00;99.90
33382;DHT22;21342;48.786;9.166;2022-11-14T11:44:34;11.80;99.90
33382;DHT22;21342;48.786;9.166;2022-11-14T11:47:04;11.80;99.90
33382;DHT22;21342;48.786;9.166;2022-11-14T11:49:39;11.80;99.90
33382;DHT22;21342;48.786;9.166;2022-11-14T11:52:14;11.80;99.90
33382;DHT22;21342;48.786;9.166;2022-11-14T11:54:58;11.90;99.90
33382;DHT22;21342;48.786;9.166;2022-11-14T11:57:31;11.90;99.90
33382;DHT22;21342;48.786;9.166;2022-11-14T12:00:05;11.80;99.90
33382;DHT22;21342;48.786;9.166;2022-11-14T12:02:41;11.80;99.90
33382;DHT22;21342;48.786;9.166;2022-11-14T12:05:13;11.80;99.90
33382;DHT22;21342;48.786;9.166;2022-11-14T12:07:48;11.70;99.90
33382;DHT22;21342;48.786;9.166;2022-11-14T12:10:21;11.70;99.90
33382;DHT22;21342;48.786;9.166;2022-11-14T12:16:05;11.70;99.90
33382;DHT22;21342;48.786;9.166;2022-11-14T12:22:00;11.80;99.90
33382;DHT22;21342;48.786;9.166;2022-11-14T12:28:04;11.90;99.90
33382;DHT22;21342;48.786;9.166;2022-11-14T12:30:36;12.10;99.90
33382;DHT22;21342;48.786;9.166;2022-11-14T12:33:08;12.20;99.90
33382;DHT22;21342;48.786;9.166;2022-11-14T12:35:36;12.50;99.90
33382;DHT22;21342;48.786;9.166;2022-11-14T12:38:11;12.70;99.90
33382;DHT22;21342;48.786;9.166;2022-11-14T12:40:41;12.80;99.90
33382;DHT22;21342;48.786;9.166;2022-11-14T12:43:30;13.00;99.90
33382;DHT22;21342;48.786;9.166;2022-11-14T12:46:00;13.00;99.90
33382;DHT22;21342;48.786;9.166;2022-11-14T12:48:35;13.20;99.90
33382;DHT22;21342;48.786;9.166;2022-11-14T12:51:08;13.10;99.90
33382;DHT22;21342;48.786;9.166;2022-11-14T12:53:52;13.00;99.90
33382;DHT22;21342;48.786;9.166;2022-11-14T12:56:42;13.10;99.90
33382;DHT22;21342;48.786;9.166;2022-11-14T12:59:37;13.20;99.90
33382;DHT22;21342;48.786;9.166;2022-11-14T13:05:26;13.40;99.90
33382;DHT22;21342;48.786;9.166;2022-11-14T13:08:09;13.50;99.90
33382;DHT22;21342;48.786;9.166;2022-11-14T13:10:42;13.50;99.90
33382;DHT22;21342;48.786;9.166;2022-11-14T13:13:10;13.60;99.90
33382;DHT22;21342;48.786;9.166;2022-11-14T13:16:22;13.80;99.90
33382;DHT22;21342;48.786;9.166;2022-11-14T13:19:14;13.80;99.90
33382;DHT22;21342;48.786;9.166;2022-11-14T13:25:21;13.50;99.90
33382;DHT22;21342;48.786;9.166;2022-11-14T13:27:48;13.40;99.90
33382;DHT22;21342;48.786;9.166;2022-11-14T13:30:15;13.30;99.90
33382;DHT22;21342;48.786;9.166;2022-11-14T13:33:02;13.20;99.90
33382;DHT22;21342;48.786;9.166;2022-11-14T13:35:56;13.20;99.90
33382;DHT22;21342;48.786;9.166;2022-11-14T13:39:12;13.20;99.90
33382;DHT22;21342;48.786;9.166;2022-11-14T13:42:10;13.20;99.90
33382;DHT22;21342;48.786;9.166;2022-11-14T13:45:10;13.20;99.90
33382;DHT22;21342;48.786;9.166;2022-11-14T13:51:06;13.20;99.90
33382;DHT22;21342;48.786;9.166;2022-11-14T13:53:38;13.20;99.90
33382;DHT22;21342;48.786;9.166;2022-11-14T13:56:18;13.30;99.90
33382;DHT22;21342;48.786;9.166;2022-11-14T14:02:15;13.30;99.90
33382;DHT22;21342;48.786;9.166;2022-11-14T14:04:53;13.40;99.90
33382;DHT22;21342;48.786;9.166;2022-11-14T14:07:36;13.50;99.90
33382;DHT22;21342;48.786;9.166;2022-11-14T14:10:18;13.50;99.90
33382;DHT22;21342;48.786;9.166;2022-11-14T14:12:57;13.50;99.90
33382;DHT22;21342;48.786;9.166;2022-11-14T14:15:29;13.50;99.90
33382;DHT22;21342;48.786;9.166;2022-11-14T14:18:06;13.50;99.90
33382;DHT22;21342;48.786;9.166;2022-11-14T14:20:43;13.50;99.90
33382;DHT22;21342;48.786;9.166;2022-11-14T14:23:30;13.40;99.90
33382;DHT22;21342;48.786;9.166;2022-11-14T14:26:04;13.40;99.90
33382;DHT22;21342;48.786;9.166;2022-11-14T14:28:41;13.40;99.90
33382;DHT22;21342;48.786;9.166;2022-11-14T14:31:13;13.50;99.90
33382;DHT22;21342;48.786;9.166;2022-11-14T14:33:41;13.50;99.90
33382;DHT22;21342;48.786;9.166;2022-11-14T14:36:21;13.50;99.90
33382;DHT22;21342;48.786;9.166;2022-11-14T14:38:50;13.50;99.90
33382;DHT22;21342;48.786;9.166;2022-11-14T14:41:32;13.40;99.90
33382;DHT22;21342;48.786;9.166;2022-11-14T14:43:59;13.40;99.90
33382;DHT22;21342;48.786;9.166;2022-11-14T14:46:29;13.40;99.90
33382;DHT22;21342;48.786;9.166;2022-11-14T14:48:58;13.40;99.90
33382;DHT22;21342;48.786;9.166;2022-11-14T14:51:32;13.40;99.90
33382;DHT22;21342;48.786;9.166;2022-11-14T14:54:00;13.40;99.90
33382;DHT22;21342;48.786;9.166;2022-11-14T14:56:28;13.40;99.90
33382;DHT22;21342;48.786;9.166;2022-11-14T14:58:55;13.40;99.90
33382;DHT22;21342;48.786;9.166;2022-11-14T15:01:32;13.40;99.90
33382;DHT22;21342;48.786;9.166;2022-11-14T15:04:02;13.30;99.90
33382;DHT22;21342;48.786;9.166;2022-11-14T15:06:32;13.30;99.90
33382;DHT22;21342;48.786;9.166;2022-11-14T15:09:08;13.20;99.90
33382;DHT22;21342;48.786;9.166;2022-11-14T15:11:39;13.20;99.90
33382;DHT22;21342;48.786;9.166;2022-11-14T15:14:12;13.20;99.90
33382;DHT22;21342;48.786;9.166;2022-11-14T15:16:40;13.30;99.90
33382;DHT22;21342;48.786;9.166;2022-11-14T15:19:11;13.20;99.90
33382;DHT22;21342;48.786;9.166;2022-11-14T15:21:39;13.20;99.90
33382;DHT22;21342;48.786;9.166;2022-11-14T15:24:15;13.20;99.90
33382;DHT22;21342;48.786;9.166;2022-11-14T15:26:44;13.10;99.90
33382;DHT22;21342;48.786;9.166;2022-11-14T15:29:17;13.10;99.90
33382;DHT22;21342;48.786;9.166;2022-11-14T15:31:46;13.00;99.90
33382;DHT22;21342;48.786;9.166;2022-11-14T15:34:25;13.00;99.90
33382;DHT22;21342;48.786;9.166;2022-11-14T15:37:17;12.90;99.90
33382;DHT22;21342;48.786;9.166;2022-11-14T15:39:46;12.90;99.90
33382;DHT22;21342;48.786;9.166;2022-11-14T15:42:15;12.90;99.90
33382;DHT22;21342;48.786;9.166;2022-11-14T15:44:44;12.80;99.90
33382;DHT22;21342;48.786;9.166;2022-11-14T15:47:16;12.80;99.90
33382;DHT22;21342;48.786;9.166;2022-11-14T15:49:53;12.70;99.90
33382;DHT22;21342;48.786;9.166;2022-11-14T15:52:25;12.70;99.90
33382;DHT22;21342;48.786;9.166;2022-11-14T15:54:54;12.60;99.90
33382;DHT22;21342;48.786;9.166;2022-11-14T15:57:21;12.50;99.90
33382;DHT22;21342;48.786;9.166;2022-11-14T15:59:48;12.50;99.90
33382;DHT22;21342;48.786;9.166;2022-11-14T16:02:17;12.50;99.90
33382;DHT22;21342;48.786;9.166;2022-11-14T16:04:45;12.50;99.90
33382;DHT22;21342;48.786;9.166;2022-11-14T16:07:14;12.40;99.90
33382;DHT22;21342;48.786;9.166;2022-11-14T16:09:41;12.30;99.90
33382;DHT22;21342;48.786;9.166;2022-11-14T16:12:10;12.20;99.90
33382;DHT22;21342;48.786;9.166;2022-11-14T16:14:37;12.20;99.90
33382;DHT22;21342;48.786;9.166;2022-11-14T16:17:05;12.20;99.90
33382;DHT22;21342;48.786;9.166;2022-11-14T16:19:32;12.20;99.90
33382;DHT22;21342;48.786;9.166;2022-11-14T16:21:59;12.20;99.90
33382;DHT22;21342;48.786;9.166;2022-11-14T16:24:28;12.10;99.90